Historical Weather Data
Okotoks
Hwy 2A and Milligan Dr

Date
ET inches
Rain inches
Temperature °C
Humidity
Avg
Wind kmh
Avg
Solar Wm2
Avg
High
Avg
Low
01/01/2021 0.01 0.00 6.3 -2.7 -12.7 67 0.0 31
01/02/2021 0.02 0.00 7.0 3.3 -4.6 50 0.0 43
01/03/2021 0.01 0.00 4.5 0.8 -5.1 53 0.0 55
01/04/2021 0.01 0.00 3.4 -2.4 -10.7 64 0.0 34
01/05/2021 0.01 0.00 3.9 -0.7 -7.1 64 0.0 52
01/06/2021 0.01 0.00 6.4 0.6 -6.1 61 0.0 37
01/07/2021 0.01 0.00 -0.1 -7.1 -13.1 66 0.0 62
01/08/2021 0.01 0.00 -5.5 -12.6 -19.6 67 0.0 66
01/09/2021 0.01 0.00 2.2 -8.7 -16.1 65 0.0 62
01/10/2021 0.01 0.00 2.9 -4.8 -13.6 63 0.0 30
01/11/2021 0.02 0.00 7.1 -0.3 -9.7 56 0.0 46
01/12/2021 0.01 0.00 8.9 4.5 -0.9 53 0.0 39
01/13/2021 0.01 0.00 9.1 2.1 -4.8 58 0.0 32
01/14/2021 0.02 0.00 5.3 -4.0 -9.4 50 0.0 68
01/15/2021 0.01 0.00 7.4 -2.0 -10.9 58 0.0 51
01/16/2021 0.02 0.00 5.3 -2.4 -8.2 55 0.0 66
01/17/2021 0.01 0.00 5.6 -0.7 -6.5 61 0.0 42
01/18/2021 0.01 0.00 2.4 -1.8 -10.1 64 0.0 47
01/19/2021 0.01 0.00 6.0 -4.1 -13.8 60 0.0 35
01/20/2021 0.02 0.00 7.5 -5.2 -13.1 66 0.0 75
01/21/2021 0.01 0.00 0.9 -8.9 -14.3 65 0.0 76
01/22/2021 0.01 0.00 -3.0 -11.2 -16.4 74 0.0 78
01/23/2021 0.01 0.00 -2.5 -11.0 -16.2 74 0.0 74
01/24/2021 0.01 0.00 -10.1 -14.9 -16.2 89 0.0 55
01/25/2021 0.01 0.00 -12.7 -14.9 -16.9 89 0.0 42
01/26/2021 0.01 0.00 -10.6 -14.6 -16.8 89 0.0 60
01/27/2021 0.01 0.00 -9.1 -13.3 -15.2 89 0.0 44
01/28/2021 0.00 0.00 -12.4 -13.9 -15.4 90 0.0 35
01/29/2021 0.01 0.00 -4.4 -13.4 -19.3 83 0.0 89
01/30/2021 0.02 0.00 3.3 -10.7 -19.7 73 0.0 85
01/31/2021 0.02 0.00 6.9 -0.4 -10.8 63 0.0 72